.
WxDataArchive / Data Records for 2012-02-02
2012-02-01 February 2012 2012-02-03

Data Records for Thursday, 02 February 2012

Time	Temp	Chill	HIndex	Humid	Dewpt	 Wind 	HiWind	WindDir	Rain 	Barom 
-----	----	-----	------	-----	-----	------	------	-------	-----	----- 
00:00	35.3	35.3	35.3	89	32.4	0	0	---	0.00	30.132 
00:05	35.3	35.3	35.3	89	32.4	0	0	---	0.00	30.132 
00:10	35.5	35.5	35.5	89	32.6	0	1	292	0.00	30.132 
00:15	35.5	35.5	35.5	89	32.6	0	0	---	0.00	30.129 
00:20	35.3	35.3	35.3	89	32.4	0	0	---	0.00	30.129 
00:25	35.3	35.3	35.3	88	32.1	0	0	---	0.00	30.129 
00:30	35.3	35.3	35.3	88	32.1	0	0	---	0.00	30.126 
00:35	35.3	35.3	35.3	88	32.1	0	0	---	0.00	30.126 
00:40	35.3	35.3	35.3	88	32.1	0	0	---	0.00	30.126 
00:45	35.2	35.2	35.2	88	32.0	0	0	---	0.00	30.130 
00:50	35.2	35.2	35.2	88	32.0	0	0	---	0.00	30.130 
00:55	35.0	35.0	35.0	87	31.5	0	0	---	0.00	30.130 
01:00	35.0	35.0	35.0	87	31.5	0	0	---	0.00	30.133 
01:05	34.9	34.9	34.9	87	31.4	0	0	---	0.00	30.133 
01:10	34.7	34.7	34.7	87	31.2	0	0	---	0.00	30.133 
01:15	34.6	34.6	34.6	87	31.1	0	0	---	0.00	30.133 
01:20	34.4	34.4	34.4	87	30.9	0	0	---	0.00	30.133 
01:25	34.1	34.1	34.1	87	30.6	0	0	---	0.00	30.133 
01:30	34.0	34.0	34.0	87	30.5	0	0	---	0.00	30.128 
01:35	33.7	33.7	33.7	87	30.3	0	0	---	0.00	30.128 
01:40	33.4	33.4	33.4	87	30.0	0	0	---	0.00	30.128 
01:45	33.1	33.1	33.1	87	29.7	0	0	---	0.00	30.129 
01:50	32.8	32.8	32.8	87	29.4	0	0	---	0.00	30.129 
01:55	32.7	32.7	32.7	87	29.3	0	0	---	0.00	30.129 
02:00	32.4	32.4	32.4	87	29.0	0	0	---	0.00	30.134 
02:05	32.2	32.2	32.2	88	29.1	0	0	---	0.00	30.134 
02:10	31.9	31.9	31.9	88	28.8	0	0	---	0.00	30.134 
02:15	31.8	31.8	31.8	88	28.7	0	0	---	0.00	30.137 
02:20	31.6	31.6	31.6	88	28.5	0	0	---	0.00	30.137 
02:25	31.5	31.5	31.5	88	28.4	0	0	---	0.00	30.137 
02:30	31.5	31.5	31.5	89	28.6	0	0	---	0.00	30.139 
02:35	31.3	31.3	31.3	89	28.4	0	0	---	0.00	30.139 
02:40	31.2	31.2	31.2	89	28.3	0	0	---	0.00	30.139 
02:45	31.0	31.0	31.0	89	28.1	0	0	---	0.00	30.145 
02:50	31.0	31.0	31.0	90	28.4	0	0	---	0.00	30.145 
02:55	31.0	31.0	31.0	90	28.4	0	0	---	0.00	30.145 
03:00	31.0	31.0	31.0	90	28.4	0	0	---	0.00	30.153 
03:05	31.0	31.0	31.0	90	28.4	0	0	---	0.00	30.153 
03:10	31.2	31.2	31.2	91	28.9	0	0	---	0.00	30.153 
03:15	31.2	31.2	31.2	91	28.9	0	0	---	0.00	30.158 
03:20	31.2	31.2	31.2	91	28.9	0	0	---	0.00	30.158 
03:25	31.5	31.5	31.5	91	29.2	0	0	---	0.00	30.158 
03:30	31.5	31.5	31.5	91	29.2	0	0	---	0.00	30.159 
03:35	31.6	31.6	31.6	91	29.3	0	0	---	0.00	30.159 
03:40	31.8	31.8	31.8	92	29.7	0	0	---	0.00	30.159 
03:45	32.1	32.1	32.1	92	30.0	0	1	292	0.00	30.165 
03:50	32.2	32.2	32.2	92	30.1	0	0	---	0.00	30.165 
03:55	32.4	32.4	32.4	92	30.3	0	0	---	0.00	30.165 
04:00	32.4	32.4	32.4	92	30.3	0	0	---	0.00	30.157 
04:05	32.4	32.4	32.4	92	30.3	0	1	292	0.00	30.157 
04:10	32.2	32.2	32.2	92	30.1	0	0	---	0.00	30.157 
04:15	32.2	32.2	32.2	92	30.1	0	0	---	0.00	30.161 
04:20	32.2	32.2	32.2	92	30.1	0	1	292	0.00	30.161 
04:25	32.2	32.2	32.2	92	30.1	0	0	---	0.00	30.161 
04:30	32.2	32.2	32.2	92	30.1	0	0	---	0.00	30.170 
04:35	32.2	32.2	32.2	92	30.1	0	0	---	0.00	30.170 
04:40	32.2	32.2	32.2	92	30.1	0	0	---	0.00	30.170 
04:45	32.2	32.2	32.2	92	30.1	0	0	---	0.00	30.170 
04:50	32.2	32.2	32.2	92	30.1	0	0	---	0.00	30.170 
04:55	32.2	32.2	32.2	92	30.1	0	0	---	0.00	30.170 
05:00	32.2	32.2	32.2	92	30.1	0	0	---	0.00	30.172 
05:05	32.4	32.4	32.4	92	30.3	0	0	---	0.00	30.172 
05:10	32.4	32.4	32.4	92	30.3	0	0	---	0.00	30.172 
05:15	32.4	32.4	32.4	92	30.3	0	1	292	0.00	30.184 
05:20	32.5	32.5	32.5	92	30.4	0	0	---	0.00	30.184 
05:25	32.5	32.5	32.5	92	30.4	0	0	---	0.00	30.184 
05:30	32.7	32.7	32.7	92	30.6	0	1	292	0.00	30.188 
05:35	32.7	32.7	32.7	92	30.6	0	1	292	0.00	30.188 
05:40	32.7	32.7	32.7	92	30.6	0	0	---	0.00	30.188 
05:45	32.8	32.8	32.8	92	30.7	0	0	---	0.00	30.189 
05:50	32.8	32.8	32.8	92	30.7	0	1	292	0.00	30.189 
05:55	32.9	32.9	32.9	92	30.8	0	0	---	0.00	30.189 
06:00	33.1	33.1	33.1	92	31.0	0	1	292	0.00	30.195 
06:05	33.1	33.1	33.1	91	30.8	0	0	---	0.00	30.195 
06:10	33.2	33.2	33.2	91	30.9	0	0	---	0.00	30.195 
06:15	33.2	33.2	33.2	91	30.9	0	1	292	0.00	30.200 
06:20	33.4	33.4	33.4	91	31.1	0	1	292	0.00	30.200 
06:25	33.4	33.4	33.4	90	30.8	0	0	---	0.00	30.200 
06:30	33.5	33.5	33.5	90	30.9	0	0	---	0.00	30.209 
06:35	33.5	33.5	33.5	90	30.9	0	0	---	0.00	30.209 
06:40	33.7	33.7	33.7	90	31.1	0	0	---	0.00	30.209 
06:45	33.7	33.7	33.7	89	30.8	0	0	---	0.00	30.217 
06:50	33.7	33.7	33.7	89	30.8	0	0	---	0.00	30.217 
06:55	33.7	33.7	33.7	89	30.8	0	0	---	0.00	30.217 
07:00	33.7	33.7	33.7	89	30.8	0	0	---	0.00	30.219 
07:05	33.5	33.5	33.5	89	30.6	0	0	---	0.00	30.219 
07:10	33.5	33.5	33.5	88	30.3	0	0	---	0.00	30.219 
07:15	33.5	33.5	33.5	88	30.3	0	0	---	0.00	30.223 
07:20	33.5	33.5	33.5	88	30.3	0	0	---	0.00	30.223 
07:25	33.5	33.5	33.5	88	30.3	0	0	---	0.00	30.223 
07:30	33.5	33.5	33.5	88	30.3	0	0	---	0.00	30.230 
07:35	33.4	33.4	33.4	88	30.2	0	0	---	0.00	30.230 
07:40	33.2	33.2	33.2	88	30.0	0	0	---	0.00	30.230 
07:45	33.1	33.1	33.1	88	29.9	0	0	---	0.00	30.229 
07:50	32.9	32.9	32.9	88	29.7	0	0	---	0.00	30.229 
07:55	32.8	32.8	32.8	88	29.6	0	0	---	0.00	30.229 
08:00	32.5	32.5	32.5	88	29.3	0	0	---	0.00	30.236 
08:05	32.4	32.4	32.4	88	29.3	0	0	---	0.00	30.236 
08:10	32.2	32.2	32.2	88	29.1	0	0	---	0.00	30.236 
08:15	32.1	32.1	32.1	88	29.0	0	0	---	0.00	30.243 
08:20	31.9	31.9	31.9	88	28.8	0	0	---	0.00	30.243 
08:25	32.1	32.1	32.1	89	29.2	0	0	---	0.00	30.243 
08:30	32.2	32.2	32.2	89	29.3	0	1	292	0.00	30.258 
08:35	32.5	32.5	32.5	89	29.6	0	1	292	0.00	30.258 
08:40	32.8	32.8	32.8	89	29.9	0	0	---	0.00	30.258 
08:45	33.1	33.1	33.1	90	30.5	0	0	---	0.00	30.268 
08:50	33.4	33.4	33.4	90	30.8	0	0	---	0.00	30.268 
08:55	33.7	33.7	33.7	89	30.8	0	1	22	0.00	30.268 
09:00	34.0	34.0	34.0	89	31.1	0	1	22	0.00	30.275 
09:05	34.3	34.3	34.3	89	31.4	0	0	---	0.00	30.275 
09:10	34.6	34.6	34.6	89	31.7	0	1	22	0.00	30.275 
09:15	34.9	34.9	34.9	88	31.7	0	1	22	0.00	30.282 
09:20	35.0	35.0	35.0	88	31.8	0	1	22	0.00	30.282 
09:25	35.3	35.3	35.3	87	31.8	0	2	0	0.00	30.282 
09:30	35.6	35.6	35.6	86	31.8	0	2	0	0.00	30.284 
09:35	35.8	35.8	35.8	85	31.7	0	1	0	0.00	30.284 
09:40	36.0	36.0	36.0	84	31.6	0	1	0	0.00	30.284 
09:45	36.2	36.2	36.2	84	31.8	0	1	0	0.00	30.281 
09:50	36.5	36.5	36.5	83	31.8	0	1	0	0.00	30.281 
09:55	36.6	36.6	36.6	82	31.6	0	1	0	0.00	30.281 
10:00	36.9	36.9	36.9	81	31.6	0	1	0	0.00	30.269 
10:05	37.2	37.2	37.2	80	31.6	0	1	0	0.00	30.269 
10:10	37.6	37.6	37.6	78	31.4	1	2	0	0.00	30.269 
10:15	37.8	37.8	37.8	77	31.2	0	1	0	0.00	30.273 
10:20	38.0	38.0	38.0	76	31.1	0	1	0	0.00	30.273 
10:25	38.2	38.2	38.2	75	31.0	1	3	338	0.00	30.273 
10:30	38.5	38.5	38.5	74	30.9	0	3	338	0.00	30.271 
10:35	38.6	38.6	38.6	73	30.7	1	4	338	0.00	30.271 
10:40	38.9	38.9	38.9	73	31.0	0	2	315	0.00	30.271 
10:45	39.1	39.1	39.1	72	30.8	1	3	315	0.00	30.280 
10:50	38.9	38.9	38.9	71	30.3	1	4	270	0.00	30.280 
10:55	39.1	39.1	39.1	70	30.2	1	3	270	0.00	30.280 
11:00	39.2	39.2	39.2	70	30.3	1	6	270	0.00	30.283 
11:05	39.3	39.3	39.3	70	30.3	0	1	270	0.00	30.283 
11:10	39.8	39.8	39.8	70	30.8	1	3	270	0.00	30.283 
11:15	40.1	40.1	40.1	70	31.1	1	3	270	0.00	30.288 
11:20	40.2	40.2	40.2	69	30.9	2	4	248	0.00	30.288 
11:25	39.9	39.9	39.9	68	30.2	0	2	338	0.00	30.288 
11:30	39.9	39.9	39.9	71	31.3	1	2	338	0.00	30.296 
11:35	40.3	40.3	40.3	70	31.3	1	3	338	0.00	30.296 
11:40	40.6	40.6	40.6	69	31.2	1	3	315	0.00	30.296 
11:45	40.9	40.9	40.9	69	31.5	1	2	315	0.00	30.296 
11:50	41.2	41.2	41.2	68	31.5	1	4	270	0.00	30.296 
11:55	41.3	41.3	41.3	67	31.2	1	3	270	0.00	30.296 
12:00	41.6	41.6	41.6	68	31.8	1	3	0	0.00	30.304 
12:05	41.8	41.8	41.8	66	31.3	1	4	248	0.00	30.304 
12:10	41.8	41.8	41.8	66	31.3	0	2	248	0.00	30.304 
12:15	41.6	41.6	41.6	66	31.1	0	2	248	0.00	30.305 
12:20	41.3	41.3	41.3	67	31.2	1	3	248	0.00	30.305 
12:25	41.3	41.3	41.3	66	30.8	1	2	248	0.00	30.305 
12:30	41.3	41.3	41.3	66	30.8	1	4	270	0.00	30.308 
12:35	41.3	41.3	41.3	66	30.8	1	3	292	0.00	30.308 
12:40	41.5	41.5	41.5	66	31.0	0	1	292	0.00	30.308 
12:45	42.1	42.1	42.1	67	31.9	1	3	292	0.00	30.299 
12:50	42.2	42.2	42.2	65	31.3	1	3	292	0.00	30.299 
12:55	42.1	42.1	42.1	65	31.2	1	2	292	0.00	30.299 
13:00	41.9	41.9	41.9	66	31.4	1	4	292	0.00	30.305 
13:05	42.2	42.2	42.2	66	31.7	1	3	270	0.00	30.305 
13:10	42.8	42.8	42.8	65	31.9	2	4	270	0.00	30.305 
13:15	42.8	42.8	42.8	63	31.1	2	4	292	0.00	30.311 
13:20	42.5	42.5	42.5	65	31.6	1	3	292	0.00	30.311 
13:25	42.6	42.6	42.6	64	31.3	1	3	292	0.00	30.311 
13:30	42.9	42.9	42.9	65	32.0	2	4	248	0.00	30.305 
13:35	43.3	43.3	43.3	65	32.3	1	3	248	0.00	30.305 
13:40	43.5	43.5	43.5	63	31.8	1	3	248	0.00	30.305 
13:45	43.5	43.5	43.5	63	31.8	2	4	248	0.00	30.306 
13:50	43.5	43.5	43.5	62	31.4	2	3	248	0.00	30.306 
13:55	43.3	43.3	43.3	63	31.6	1	4	270	0.00	30.306 
14:00	43.8	43.8	43.8	63	32.0	2	4	248	0.00	30.310 
14:05	43.8	43.8	43.8	63	32.0	1	3	248	0.00	30.310 
14:10	44.1	44.1	44.1	62	31.9	1	3	248	0.00	30.310 
14:15	44.1	44.1	44.1	62	31.9	1	4	248	0.00	30.312 
14:20	43.3	43.3	43.3	62	31.2	1	3	292	0.00	30.312 
14:25	43.3	43.3	43.3	63	31.6	1	4	292	0.00	30.312 
14:30	43.3	43.3	43.3	62	31.2	1	3	248	0.00	30.311 
14:35	43.5	43.5	43.5	63	31.8	2	4	248	0.00	30.311 
14:40	43.8	43.8	43.8	63	32.0	1	3	0	0.00	30.311 
14:45	43.5	43.5	43.5	62	31.4	1	5	0	0.00	30.311 
14:50	43.3	43.3	43.3	63	31.6	1	3	0	0.00	30.311 
14:55	43.6	43.6	43.6	64	32.2	1	3	338	0.00	30.311 
15:00	44.1	44.1	44.1	63	32.3	1	3	270	0.00	30.312 
15:05	44.3	44.3	44.3	62	32.1	1	3	270	0.00	30.312 
15:10	44.6	44.6	44.6	62	32.4	2	3	270	0.00	30.312 
15:15	44.6	44.6	44.6	62	32.4	1	3	270	0.00	30.313 
15:20	44.8	44.8	44.8	62	32.6	1	2	248	0.00	30.313 
15:25	44.8	44.8	44.8	62	32.6	1	3	248	0.00	30.313 
15:30	44.5	44.5	44.5	62	32.3	1	2	248	0.00	30.316 
15:35	44.6	44.6	44.6	62	32.4	1	2	248	0.00	30.316 
15:40	44.6	44.6	44.6	62	32.4	1	2	248	0.00	30.316 
15:45	44.3	44.3	44.3	62	32.1	1	2	315	0.00	30.321 
15:50	44.5	44.5	44.5	62	32.3	1	3	315	0.00	30.321 
15:55	44.6	44.6	44.6	62	32.4	1	3	315	0.00	30.321 
16:00	44.5	44.5	44.5	62	32.3	1	3	315	0.00	30.321 
16:05	44.1	44.1	44.1	61	31.5	1	3	315	0.00	30.321 
16:10	43.9	43.9	43.9	62	31.7	1	4	315	0.00	30.321 
16:15	43.8	43.8	43.8	62	31.6	1	3	338	0.00	30.324 
16:20	43.8	43.8	43.8	63	32.0	0	2	338	0.00	30.324 
16:25	43.8	43.8	43.8	63	32.0	0	2	338	0.00	30.324 
16:30	43.8	43.8	43.8	62	31.6	0	2	338	0.00	30.323 
16:35	43.8	43.8	43.8	63	32.0	0	2	338	0.00	30.323 
16:40	43.6	43.6	43.6	63	31.8	0	1	338	0.00	30.323 
16:45	43.6	43.6	43.6	62	31.5	1	3	315	0.00	30.328 
16:50	43.6	43.6	43.6	63	31.8	0	3	315	0.00	30.328 
16:55	43.6	43.6	43.6	64	32.2	0	2	315	0.00	30.328 
17:00	43.6	43.6	43.6	64	32.2	0	2	315	0.00	30.328 
17:05	43.5	43.5	43.5	64	32.1	0	1	315	0.00	30.328 
17:10	43.3	43.3	43.3	65	32.3	0	1	315	0.00	30.328 
17:15	43.2	43.2	43.2	65	32.2	0	1	315	0.00	30.330 
17:20	43.1	43.1	43.1	65	32.1	0	1	315	0.00	30.330 
17:25	42.9	42.9	42.9	66	32.3	0	0	---	0.00	30.330 
17:30	42.8	42.8	42.8	66	32.2	0	1	315	0.00	30.339 
17:35	42.6	42.6	42.6	66	32.0	0	1	315	0.00	30.339 
17:40	42.3	42.3	42.3	67	32.1	0	1	315	0.00	30.339 
17:45	42.1	42.1	42.1	67	31.9	0	1	315	0.00	30.343 
17:50	41.9	41.9	41.9	68	32.1	0	1	315	0.00	30.343 
17:55	41.6	41.6	41.6	68	31.8	0	1	315	0.00	30.343 
18:00	41.3	41.3	41.3	69	31.9	0	0	---	0.00	30.345 
18:05	41.1	41.1	41.1	69	31.7	0	1	315	0.00	30.345 
18:10	40.6	40.6	40.6	70	31.6	0	0	---	0.00	30.345 
18:15	40.2	40.2	40.2	71	31.6	0	0	---	0.00	30.346 
18:20	39.8	39.8	39.8	72	31.5	0	0	---	0.00	30.346 
18:25	39.5	39.5	39.5	73	31.6	0	0	---	0.00	30.346 
18:30	39.1	39.1	39.1	73	31.2	0	0	---	0.00	30.349 
18:35	38.6	38.6	38.6	74	31.0	0	0	---	0.00	30.349 
18:40	38.2	38.2	38.2	74	30.7	0	0	---	0.00	30.349 
18:45	37.8	37.8	37.8	76	30.9	0	0	---	0.00	30.353 
18:50	37.5	37.5	37.5	76	30.6	0	0	---	0.00	30.353 
18:55	37.0	37.0	37.0	77	30.5	0	0	---	0.00	30.353 
19:00	36.6	36.6	36.6	78	30.4	0	0	---	0.00	30.362 
19:05	36.3	36.3	36.3	78	30.1	0	0	---	0.00	30.362 
19:10	35.9	35.9	35.9	79	30.0	0	0	---	0.00	30.362 
19:15	35.6	35.6	35.6	79	29.7	0	0	---	0.00	30.366 
19:20	35.3	35.3	35.3	80	29.8	0	0	---	0.00	30.366 
19:25	34.9	34.9	34.9	81	29.7	0	0	---	0.00	30.366 
19:30	34.7	34.7	34.7	81	29.5	0	0	---	0.00	30.367 
19:35	34.4	34.4	34.4	82	29.5	0	0	---	0.00	30.367 
19:40	34.1	34.1	34.1	82	29.2	0	0	---	0.00	30.367 
19:45	33.8	33.8	33.8	82	28.9	0	0	---	0.00	30.369 
19:50	33.5	33.5	33.5	83	28.9	0	0	---	0.00	30.369 
19:55	33.2	33.2	33.2	84	28.9	0	0	---	0.00	30.369 
20:00	33.1	33.1	33.1	84	28.8	0	0	---	0.00	30.374 
20:05	32.8	32.8	32.8	84	28.5	0	0	---	0.00	30.374 
20:10	32.7	32.7	32.7	85	28.7	0	0	---	0.00	30.374 
20:15	32.5	32.5	32.5	85	28.5	0	0	---	0.00	30.380 
20:20	32.4	32.4	32.4	85	28.4	0	0	---	0.00	30.380 
20:25	32.2	32.2	32.2	86	28.5	0	0	---	0.00	30.380 
20:30	32.1	32.1	32.1	86	28.4	0	0	---	0.00	30.385 
20:35	31.9	31.9	31.9	87	28.5	0	0	---	0.00	30.385 
20:40	31.8	31.8	31.8	87	28.4	0	0	---	0.00	30.385 
20:45	31.6	31.6	31.6	87	28.2	0	0	---	0.00	30.390 
20:50	31.5	31.5	31.5	87	28.1	0	0	---	0.00	30.390 
20:55	31.3	31.3	31.3	88	28.2	0	0	---	0.00	30.390 
21:00	31.2	31.2	31.2	88	28.1	0	0	---	0.00	30.391 
21:05	31.0	31.0	31.0	88	27.9	0	0	---	0.00	30.391 
21:10	30.7	30.7	30.7	88	27.6	0	0	---	0.00	30.391 
21:15	30.6	30.6	30.6	88	27.5	0	0	---	0.00	30.392 
21:20	30.6	30.6	30.6	89	27.8	0	0	---	0.00	30.392 
21:25	30.6	30.6	30.6	89	27.8	0	0	---	0.00	30.392 
21:30	30.6	30.6	30.6	89	27.8	0	0	---	0.00	30.392 
21:35	30.4	30.4	30.4	89	27.6	0	0	---	0.00	30.392 
21:40	30.3	30.3	30.3	89	27.5	0	0	---	0.00	30.392 
21:45	30.3	30.3	30.3	89	27.5	0	0	---	0.00	30.396 
21:50	30.1	30.1	30.1	89	27.3	0	0	---	0.00	30.396 
21:55	30.0	30.0	30.0	89	27.2	0	0	---	0.00	30.396 
22:00	29.7	29.7	29.7	90	27.1	0	0	---	0.00	30.399 
22:05	29.5	29.5	29.5	90	26.9	0	0	---	0.00	30.399 
22:10	29.4	29.4	29.4	90	26.8	0	0	---	0.00	30.399 
22:15	29.4	29.4	29.4	90	26.8	0	0	---	0.00	30.398 
22:20	29.4	29.4	29.4	90	26.8	0	0	---	0.00	30.398 
22:25	29.1	29.1	29.1	90	26.5	0	0	---	0.00	30.398 
22:30	29.0	29.0	29.0	90	26.4	0	0	---	0.00	30.400 
22:35	29.0	29.0	29.0	90	26.4	0	0	---	0.00	30.400 
22:40	29.0	29.0	29.0	90	26.4	0	0	---	0.00	30.400 
22:45	29.0	29.0	29.0	91	26.7	0	0	---	0.00	30.401 
22:50	29.0	29.0	29.0	91	26.7	0	0	---	0.00	30.401 
22:55	28.8	28.8	28.8	91	26.5	0	0	---	0.00	30.401 
23:00	28.7	28.7	28.7	91	26.4	0	0	---	0.00	30.401 
23:05	28.7	28.7	28.7	91	26.4	0	0	---	0.00	30.401 
23:10	28.5	28.5	28.5	91	26.2	0	0	---	0.00	30.401 
23:15	28.4	28.4	28.4	91	26.1	0	0	---	0.00	30.399 
23:20	28.4	28.4	28.4	91	26.1	0	0	---	0.00	30.399 
23:25	28.2	28.2	28.2	91	25.9	0	0	---	0.00	30.399 
23:30	28.1	28.1	28.1	91	25.8	0	0	---	0.00	30.401 
23:35	27.9	27.9	27.9	91	25.6	0	0	---	0.00	30.401 
23:40	27.8	27.8	27.8	91	25.5	0	0	---	0.00	30.401 
23:45	27.6	27.6	27.6	91	25.3	0	0	---	0.00	30.405 
23:50	27.5	27.5	27.5	91	25.2	0	0	---	0.00	30.405 
23:55	27.5	27.5	27.5	91	25.2	0	0	---	0.00	30.405 

CoCoRaHS
IN-AL-39
A2 Web Hosting
Creative Commons License
GoDaddy
search engine by freefind advanced

loaded 2018-11-21 01:25:44 • last modified 2010-11-18 10:43:29
Privacy PolicyDisclaimer
• wx.awcolley.com is powered by PmWiki v.2002016 •
• all content (unless otherwise noted) © 2018 A W Colley